Time;durP1;ratioP1;P1;durP2;ratioP2;P2;SDS_P1;SDS_P2;PMS_P1;PMS_P2;Temp;Humidity;BMP_temperature;BMP_pressure;BME280_temperature;BME280_humidity;BME280_pressure;Samples;Min_cycle;Max_cycle;Signal;HPM_P1;HPM_P2
2024/02/06 00:01:50;;;;;;;;;;;;;;;16.03;41.44;100600.31;4902378;29;1301;-46
2024/02/06 00:04:16;;;;;;;;;;;;;;;15.85;41.86;100598.00;4899631;29;1039;-45
2024/02/06 00:06:41;;;;;;;;;;;;;;;16.66;40.40;100588.63;4884008;29;1031;-45
2024/02/06 00:09:08;;;;;;;;;;;;;;;17.43;38.64;100594.31;4900723;29;1313;-48
2024/02/06 00:11:34;;;;;;;;;;;;;;;16.41;40.68;100593.13;4883932;29;1911;-48
2024/02/06 00:13:59;;;;;;;;;;;;;;;16.39;40.42;100592.38;4889960;29;1194;-44
2024/02/06 00:16:25;;;;;;;;;;;;;;;15.88;42.06;100602.25;4888850;29;1030;-50
2024/02/06 00:18:51;;;;;;;;;;;;;;;15.54;42.75;100613.47;4884170;29;2132;-45
2024/02/06 00:21:16;;;;;;;;;;;;;;;15.36;43.30;100607.66;4896319;29;1079;-49
2024/02/06 00:23:42;;;;;;;;;;;;;;;16.15;41.67;100604.72;4883965;29;975;-48
2024/02/06 00:26:08;;;;;;;;;;;;;;;17.36;38.82;100601.06;4883966;29;1074;-49
2024/02/06 00:28:34;;;;;;;;;;;;;;;16.45;40.61;100610.50;4902021;29;1051;-46
2024/02/06 00:31:00;;;;;;;;;;;;;;;15.95;41.90;100605.31;4899438;29;1946;-47
2024/02/06 00:33:25;;;;;;;;;;;;;;;15.63;42.63;100602.19;4886407;29;1006;-50
2024/02/06 00:35:51;;;;;;;;;;;;;;;15.45;42.77;100595.56;4895449;29;1415;-47
2024/02/06 00:38:16;;;;;;;;;;;;;;;16.05;42.02;100595.72;4900786;29;1523;-49
2024/02/06 00:40:42;;;;;;;;;;;;;;;17.27;39.26;100596.47;4894038;29;929;-46
2024/02/06 00:43:08;;;;;;;;;;;;;;;16.40;40.84;100594.94;4901927;29;1173;-50
2024/02/06 00:45:33;;;;;;;;;;;;;;;15.96;41.96;100602.53;4895578;29;999;-49
2024/02/06 00:47:59;;;;;;;;;;;;;;;15.66;42.79;100606.44;4895212;29;1986;-46
2024/02/06 00:50:24;;;;;;;;;;;;;;;15.50;42.97;100598.72;4901832;29;1906;-45
2024/02/06 00:52:50;;;;;;;;;;;;;;;15.28;43.63;100601.09;4887560;29;875;-48
2024/02/06 00:55:16;;;;;;;;;;;;;;;16.67;40.71;100590.31;4902108;29;1025;-46
2024/02/06 00:57:41;;;;;;;;;;;;;;;17.19;39.43;100595.25;4902155;29;1162;-49
2024/02/06 01:00:07;;;;;;;;;;;;;;;16.32;41.12;100602.63;4900842;29;1297;-47
2024/02/06 01:02:33;;;;;;;;;;;;;;;15.81;42.41;100593.88;4902062;29;951;-50
2024/02/06 01:05:00;;;;;;;;;;;;;;;15.65;42.45;100591.47;4894286;29;1000;-47
2024/02/06 01:07:25;;;;;;;;;;;;;;;15.46;43.22;100598.09;4901485;29;1014;-48
2024/02/06 01:09:51;;;;;;;;;;;;;;;15.58;43.03;100604.31;4893661;29;1134;-49
2024/02/06 01:12:17;;;;;;;;;;;;;;;17.04;39.83;100596.41;4884272;29;1966;-47
2024/02/06 01:14:42;;;;;;;;;;;;;;;16.70;40.40;100600.69;4901387;29;1081;-46
2024/02/06 01:17:08;;;;;;;;;;;;;;;16.04;41.94;100612.63;4901819;29;1073;-46
2024/02/06 01:19:34;;;;;;;;;;;;;;;15.73;42.29;100610.34;4901258;29;1019;-49
2024/02/06 01:21:59;;;;;;;;;;;;;;;15.54;43.12;100611.66;4887026;29;1081;-48
2024/02/06 01:24:25;;;;;;;;;;;;;;;16.14;41.77;100615.44;4883030;29;1424;-49
2024/02/06 01:26:50;;;;;;;;;;;;;;;17.35;39.21;100625.97;4897012;29;979;-49
2024/02/06 01:29:16;;;;;;;;;;;;;;;16.47;40.87;100632.50;4892956;29;936;-49
2024/02/06 01:31:42;;;;;;;;;;;;;;;15.97;42.20;100630.75;4896136;29;1930;-47
2024/02/06 01:34:07;;;;;;;;;;;;;;;15.66;42.45;100639.09;4901184;29;1070;-45
2024/02/06 01:36:36;;;;;;;;;;;;;;;15.53;42.99;100633.00;4899946;29;1082;-49
2024/02/06 01:39:01;;;;;;;;;;;;;;;15.61;43.12;100635.09;4890527;29;1050;-47
2024/02/06 01:41:27;;;;;;;;;;;;;;;17.04;40.13;100622.97;4886420;29;877;-48
2024/02/06 01:43:53;;;;;;;;;;;;;;;16.92;39.91;100630.09;4890061;29;1050;-48
2024/02/06 01:46:19;;;;;;;;;;;;;;;16.11;41.64;100626.28;4900943;29;1035;-47
2024/02/06 01:48:45;;;;;;;;;;;;;;;15.78;42.20;100633.91;4900349;29;1058;-48
2024/02/06 01:51:10;;;;;;;;;;;;;;;15.57;42.86;100628.28;4900533;29;1896;-48
2024/02/06 01:53:36;;;;;;;;;;;;;;;15.40;43.41;100631.19;4890151;29;871;-49
2024/02/06 01:56:02;;;;;;;;;;;;;;;16.12;42.25;100636.78;4888643;29;1174;-46
2024/02/06 01:58:27;;;;;;;;;;;;;;;17.28;39.53;100636.22;4901123;29;1043;-50
2024/02/06 02:00:53;;;;;;;;;;;;;;;16.49;40.74;100629.72;4899830;29;1098;-49
2024/02/06 02:03:20;;;;;;;;;;;;;;;15.96;41.92;100620.25;4901703;29;1109;-50
2024/02/06 02:05:45;;;;;;;;;;;;;;;15.73;42.75;100612.16;4895558;29;907;-46
2024/02/06 02:08:11;;;;;;;;;;;;;;;15.50;42.97;100604.00;4889633;29;1081;-48
2024/02/06 02:10:36;;;;;;;;;;;;;;;15.46;43.29;100590.16;4887838;29;1989;-47
2024/02/06 02:13:02;;;;;;;;;;;;;;;16.92;40.51;100583.09;4882369;29;1131;-52
2024/02/06 02:15:28;;;;;;;;;;;;;;;16.58;40.59;100596.31;4896801;29;1111;-53
2024/02/06 02:17:53;;;;;;;;;;;;;;;15.90;42.45;100595.88;4894815;29;1538;-52
2024/02/06 02:20:19;;;;;;;;;;;;;;;15.66;42.87;100611.75;4901029;29;1156;-50
2024/02/06 02:22:45;;;;;;;;;;;;;;;15.47;43.11;100613.06;4894001;29;1018;-51
2024/02/06 02:25:11;;;;;;;;;;;;;;;15.26;43.54;100616.25;4882987;29;1062;-49
2024/02/06 02:27:36;;;;;;;;;;;;;;;16.67;40.83;100622.19;4893830;29;1123;-51
2024/02/06 02:30:02;;;;;;;;;;;;;;;16.93;40.16;100624.69;4899426;29;923;-51
2024/02/06 02:32:28;;;;;;;;;;;;;;;16.14;41.53;100629.56;4900955;29;1987;-51
2024/02/06 02:34:54;;;;;;;;;;;;;;;15.73;42.62;100636.84;4902227;29;1148;-51
2024/02/06 02:37:19;;;;;;;;;;;;;;;15.49;43.00;100647.41;4888929;29;1187;-49
2024/02/06 02:39:45;;;;;;;;;;;;;;;15.37;43.50;100652.59;4901018;29;1119;-50
2024/02/06 02:42:11;;;;;;;;;;;;;;;16.81;40.67;100652.16;4900758;29;1307;-49
2024/02/06 02:44:36;;;;;;;;;;;;;;;17.11;39.78;100648.16;4900582;29;1070;-52
2024/02/06 02:47:02;;;;;;;;;;;;;;;16.23;41.57;100654.56;4901253;29;1071;-51
2024/02/06 02:49:28;;;;;;;;;;;;;;;15.82;42.40;100656.59;4888044;29;1150;-47
2024/02/06 02:51:53;;;;;;;;;;;;;;;15.60;42.84;100665.22;4900082;29;1974;-49
2024/02/06 02:54:19;;;;;;;;;;;;;;;15.47;43.21;100666.06;4894724;29;1015;-52
2024/02/06 02:56:45;;;;;;;;;;;;;;;16.94;40.23;100673.34;4900416;29;1141;-52
2024/02/06 02:59:11;;;;;;;;;;;;;;;16.93;40.17;100695.56;4900864;29;1042;-51
2024/02/06 03:01:36;;;;;;;;;;;;;;;16.10;41.67;100697.09;4886207;29;969;-50
2024/02/06 03:04:02;;;;;;;;;;;;;;;15.82;42.69;100695.50;4885746;29;1118;-52
2024/02/06 03:06:28;;;;;;;;;;;;;;;15.60;43.11;100700.53;4904851;29;1050;-51
2024/02/06 03:08:54;;;;;;;;;;;;;;;15.44;43.38;100711.34;4891442;29;1077;-50
2024/02/06 03:11:19;;;;;;;;;;;;;;;16.37;41.39;100713.78;4897726;29;1899;-50
2024/02/06 03:13:45;;;;;;;;;;;;;;;17.40;39.31;100708.84;4885598;29;1075;-52
2024/02/06 03:16:11;;;;;;;;;;;;;;;16.43;41.21;100717.81;4891413;29;1155;-51
2024/02/06 03:18:37;;;;;;;;;;;;;;;15.96;42.23;100723.72;4903914;29;1069;-52
2024/02/06 03:21:03;;;;;;;;;;;;;;;15.68;42.59;100729.19;4903925;29;1085;-49
2024/02/06 03:23:29;;;;;;;;;;;;;;;15.46;43.47;100720.06;4915085;29;1142;-52
2024/02/06 03:25:54;;;;;;;;;;;;;;;16.24;41.70;100727.94;4903281;29;1215;-51
2024/02/06 03:28:20;;;;;;;;;;;;;;;17.27;39.54;100719.59;4903281;29;1086;-53
2024/02/06 03:30:46;;;;;;;;;;;;;;;16.33;41.30;100714.97;4903815;29;1906;-50
2024/02/06 03:33:11;;;;;;;;;;;;;;;15.90;42.51;100709.94;4902540;29;1148;-50
2024/02/06 03:35:40;;;;;;;;;;;;;;;15.68;42.65;100694.72;4902933;29;1022;-48
2024/02/06 03:38:05;;;;;;;;;;;;;;;15.43;43.12;100699.88;4903703;29;1070;-50
2024/02/06 03:40:32;;;;;;;;;;;;;;;16.46;41.40;100701.63;4900631;29;1119;-51
2024/02/06 03:42:58;;;;;;;;;;;;;;;17.29;39.51;100719.47;4885210;29;1054;-52
2024/02/06 03:45:23;;;;;;;;;;;;;;;16.28;41.35;100710.81;4903038;29;1127;-50
2024/02/06 03:47:49;;;;;;;;;;;;;;;15.86;42.53;100705.81;4903517;29;1136;-50
2024/02/06 03:50:14;;;;;;;;;;;;;;;15.60;43.05;100705.81;4903697;29;1098;-48
2024/02/06 03:52:40;;;;;;;;;;;;;;;15.48;43.51;100710.16;4900575;29;1977;-49
2024/02/06 03:55:06;;;;;;;;;;;;;;;16.25;41.71;100729.63;4902780;29;1051;-50
2024/02/06 03:57:32;;;;;;;;;;;;;;;17.34;39.36;100715.50;4903136;29;1142;-48
2024/02/06 03:59:58;;;;;;;;;;;;;;;16.44;40.76;100707.06;4890949;29;1175;-49
2024/02/06 04:02:23;;;;;;;;;;;;;;;15.89;42.06;100696.78;4901715;29;1348;-47
2024/02/06 04:04:49;;;;;;;;;;;;;;;15.66;43.14;100699.25;4898571;29;1270;-48
2024/02/06 04:07:15;;;;;;;;;;;;;;;15.49;43.36;100695.97;4897607;29;1129;-52
2024/02/06 04:09:41;;;;;;;;;;;;;;;16.03;42.42;100696.66;4896041;29;1166;-51
2024/02/06 04:12:06;;;;;;;;;;;;;;;17.29;39.49;100708.84;4890679;29;1910;-43
2024/02/06 04:14:33;;;;;;;;;;;;;;;16.62;40.92;100712.81;4890972;29;1093;-48
2024/02/06 04:16:58;;;;;;;;;;;;;;;15.99;42.21;100710.28;4913542;29;1153;-47
2024/02/06 04:19:24;;;;;;;;;;;;;;;15.77;42.59;100717.06;4902551;29;1107;-47
2024/02/06 04:21:50;;;;;;;;;;;;;;;15.52;43.18;100722.28;4903102;29;1230;-46
2024/02/06 04:24:16;;;;;;;;;;;;;;;15.63;43.23;100740.09;4884290;29;1078;-47
2024/02/06 04:26:42;;;;;;;;;;;;;;;17.07;40.10;100747.66;4896277;29;1095;-45
2024/02/06 04:29:08;;;;;;;;;;;;;;;16.93;40.05;100744.25;4902319;29;1098;-45
2024/02/06 04:31:33;;;;;;;;;;;;;;;16.16;41.84;100757.69;4901778;29;1907;-49
2024/02/06 04:33:59;;;;;;;;;;;;;;;15.79;42.62;100763.75;4896413;29;1036;-50
2024/02/06 04:36:24;;;;;;;;;;;;;;;15.59;42.79;100770.44;4884067;29;1054;-49
2024/02/06 04:38:50;;;;;;;;;;;;;;;15.39;43.46;100775.28;4895974;29;1125;-49
2024/02/06 04:41:15;;;;;;;;;;;;;;;16.49;41.27;100773.97;4883795;29;1059;-51
2024/02/06 04:43:42;;;;;;;;;;;;;;;17.21;39.68;100770.59;4884072;29;1133;-51
2024/02/06 04:46:07;;;;;;;;;;;;;;;16.24;41.50;100766.91;4883914;29;1138;-50
2024/02/06 04:48:33;;;;;;;;;;;;;;;15.76;42.76;100763.97;4883032;29;1428;-51
2024/02/06 04:50:58;;;;;;;;;;;;;;;15.57;43.33;100755.56;4883497;29;1902;-50
2024/02/06 04:53:24;;;;;;;;;;;;;;;15.44;43.68;100756.41;4883741;29;1059;-54
2024/02/06 04:55:50;;;;;;;;;;;;;;;16.65;40.89;100755.09;4892289;29;1142;-45
2024/02/06 04:58:15;;;;;;;;;;;;;;;17.29;39.34;100738.09;4894239;29;1169;-57
2024/02/06 05:00:41;;;;;;;;;;;;;;;16.82;40.05;100746.84;4895817;29;1321;-55
2024/02/06 05:03:07;;;;;;;;;;;;;;;15.99;41.84;100753.59;4895774;29;1077;-50
2024/02/06 05:05:33;;;;;;;;;;;;;;;15.67;42.64;100752.19;4889529;29;1256;-54
2024/02/06 05:07:59;;;;;;;;;;;;;;;15.51;42.90;100759.50;4889108;29;1071;-50
2024/02/06 05:10:24;;;;;;;;;;;;;;;15.32;43.33;100751.94;4889501;29;1193;-49
2024/02/06 05:12:50;;;;;;;;;;;;;;;16.60;41.32;100761.72;4901770;29;1910;-46
2024/02/06 05:15:15;;;;;;;;;;;;;;;17.32;39.18;100757.31;4889672;29;1134;-48
2024/02/06 05:17:41;;;;;;;;;;;;;;;16.81;40.30;100761.94;4899668;29;912;-45
2024/02/06 05:20:09;;;;;;;;;;;;;;;17.99;38.23;100757.53;4883012;29;1202;-49
2024/02/06 05:22:37;;;;;;;;;;;;;;;16.18;41.65;100775.31;4902058;29;1118;-47
2024/02/06 05:25:03;;;;;;;;;;;;;;;16.81;40.69;100761.94;4901285;29;1042;-47
2024/02/06 05:27:28;;;;;;;;;;;;;;;17.32;39.36;100746.69;4901621;29;1182;-48
2024/02/06 05:29:54;;;;;;;;;;;;;;;15.89;42.53;100765.75;4888397;29;1089;-46
2024/02/06 05:32:20;;;;;;;;;;;;;;;17.90;38.61;100758.22;4901227;29;1910;-47
2024/02/06 05:34:45;;;;;;;;;;;;;;;16.72;40.57;100754.63;4901179;29;1050;-48
2024/02/06 05:37:11;;;;;;;;;;;;;;;15.99;42.36;100758.88;4901841;29;1110;-49
2024/02/06 05:39:36;;;;;;;;;;;;;;;18.11;38.27;100757.53;4887777;29;1174;-48
2024/02/06 05:42:03;;;;;;;;;;;;;;;16.53;41.36;100754.19;4882806;29;1062;-46
2024/02/06 05:44:28;;;;;;;;;;;;;;;15.86;42.74;100748.25;4898101;29;1094;-46
2024/02/06 05:46:54;;;;;;;;;;;;;;;17.92;38.79;100756.31;4901358;29;1071;-47
2024/02/06 05:49:19;;;;;;;;;;;;;;;16.57;40.94;100759.25;4888424;29;1205;-46
2024/02/06 05:51:45;;;;;;;;;;;;;;;16.03;42.52;100765.66;4901135;29;1903;-46
2024/02/06 05:54:10;;;;;;;;;;;;;;;18.12;38.15;100761.88;4900074;29;1150;-46
2024/02/06 05:56:36;;;;;;;;;;;;;;;16.48;41.43;100772.25;4896043;29;1010;-46
2024/02/06 05:59:03;;;;;;;;;;;;;;;17.45;39.65;100769.69;4882687;29;1098;-48
2024/02/06 06:01:29;;;;;;;;;;;;;;;17.29;39.52;100762.88;4888134;29;1063;-46
2024/02/06 06:03:54;;;;;;;;;;;;;;;16.30;41.94;100773.59;4901213;29;1042;-49
2024/02/06 06:06:20;;;;;;;;;;;;;;;15.89;42.69;100763.97;4892964;29;1098;-47
2024/02/06 06:08:45;;;;;;;;;;;;;;;17.83;39.12;100773.84;4882371;29;1063;-49
2024/02/06 06:11:11;;;;;;;;;;;;;;;16.85;40.69;100763.41;4894284;29;1907;-48
2024/02/06 06:13:37;;;;;;;;;;;;;;;16.07;42.13;100768.09;4894490;29;1133;-48
2024/02/06 06:16:02;;;;;;;;;;;;;;;16.78;41.35;100767.50;4900728;29;1073;-47
2024/02/06 06:18:28;;;;;;;;;;;;;;;17.64;39.09;100766.44;4892298;29;1502;-45
2024/02/06 06:20:53;;;;;;;;;;;;;;;16.43;41.86;100777.06;4887047;29;1144;-44
2024/02/06 06:23:19;;;;;;;;;;;;;;;15.93;42.80;100764.59;4900863;29;1042;-45
2024/02/06 06:25:45;;;;;;;;;;;;;;;17.49;39.75;100779.97;4891937;29;1113;-47
2024/02/06 06:28:10;;;;;;;;;;;;;;;16.30;41.75;100777.06;4900849;29;1085;-45
2024/02/06 06:30:36;;;;;;;;;;;;;;;16.81;41.25;100785.84;4892133;29;1939;-51
2024/02/06 06:33:03;;;;;;;;;;;;;;;17.86;38.56;100786.06;4883867;29;1114;-51
2024/02/06 06:35:29;;;;;;;;;;;;;;;16.35;41.44;100788.22;4902879;29;1144;-50
2024/02/06 06:37:55;;;;;;;;;;;;;;;15.95;42.56;100796.34;4890466;29;1185;-46
2024/02/06 06:40:20;;;;;;;;;;;;;;;16.38;42.21;100795.97;4893987;29;1030;-46
2024/02/06 06:42:46;;;;;;;;;;;;;;;17.42;39.34;100797.34;4889632;29;1213;-49
2024/02/06 06:45:11;;;;;;;;;;;;;;;16.18;42.22;100800.06;4886403;29;1036;-50
2024/02/06 06:47:37;;;;;;;;;;;;;;;17.35;40.18;100801.47;4897829;29;1178;-49
2024/02/06 06:50:03;;;;;;;;;;;;;;;16.67;41.32;100801.94;4893922;29;1160;-47
2024/02/06 06:52:31;;;;;;;;;;;;;;;16.01;42.21;100801.22;4902337;29;1915;-48
2024/02/06 06:54:57;;;;;;;;;;;;;;;15.75;42.74;100802.03;4894612;29;907;-50
2024/02/06 06:57:22;;;;;;;;;;;;;;;15.94;43.05;100797.28;4892797;29;1078;-49
2024/02/06 06:59:48;;;;;;;;;;;;;;;18.07;38.77;100788.84;4903076;29;1233;-48
2024/02/06 07:02:14;;;;;;;;;;;;;;;16.43;41.58;100790.34;4903338;29;1054;-46
2024/02/06 07:04:39;;;;;;;;;;;;;;;15.90;42.66;100797.50;4904118;29;1073;-47
2024/02/06 07:07:05;;;;;;;;;;;;;;;15.78;42.74;100796.53;4902599;29;1077;-47
2024/02/06 07:09:30;;;;;;;;;;;;;;;17.01;41.19;100791.50;4886678;29;1189;-46
2024/02/06 07:11:56;;;;;;;;;;;;;;;17.10;40.28;100788.19;4885024;29;1911;-49
2024/02/06 07:14:22;;;;;;;;;;;;;;;16.02;42.45;100789.66;4897614;29;1091;-47
2024/02/06 07:16:47;;;;;;;;;;;;;;;15.75;42.90;100799.41;4885519;29;1149;-49
2024/02/06 07:19:13;;;;;;;;;;;;;;;16.39;42.31;100795.03;4895277;29;1105;-48
2024/02/06 07:21:38;;;;;;;;;;;;;;;17.86;38.74;100789.59;4904110;29;1097;-48
2024/02/06 07:24:04;;;;;;;;;;;;;;;16.22;42.15;100796.22;4903608;29;1038;-48
2024/02/06 07:26:33;;;;;;;;;;;;;;;16.48;42.24;100793.50;4903851;29;1057;-51
2024/02/06 07:28:58;;;;;;;;;;;;;;;17.09;40.23;100785.63;4903567;29;1101;-51
2024/02/06 07:31:24;;;;;;;;;;;;;;;16.17;42.49;100787.72;4892437;29;1911;-50
2024/02/06 07:33:49;;;;;;;;;;;;;;;16.37;42.47;100791.63;4902680;29;1372;-50
2024/02/06 07:36:15;;;;;;;;;;;;;;;16.90;40.98;100784.31;4903931;29;1396;-48
2024/02/06 07:38:44;;;;;;;;;;;;;;;16.02;42.71;100792.31;4903198;29;1378;-50
2024/02/06 07:41:09;;;;;;;;;;;;;;;17.26;40.59;100789.69;4903517;29;1323;-50
2024/02/06 07:43:37;;;;;;;;;;;;;;;17.12;40.12;100796.03;4898114;29;1284;-49
2024/02/06 07:46:04;;;;;;;;;;;;;;;16.22;42.09;100788.25;4902438;29;1312;-50
2024/02/06 07:48:30;;;;;;;;;;;;;;;15.87;42.81;100784.44;4902942;29;1162;-47
2024/02/06 07:50:55;;;;;;;;;;;;;;;15.58;43.27;100786.44;4903400;29;2098;-49
2024/02/06 07:53:21;;;;;;;;;;;;;;;17.84;39.18;100788.00;4903037;29;1296;-50
2024/02/06 07:55:47;;;;;;;;;;;;;;;16.93;40.78;100785.91;4892375;29;1176;-46
2024/02/06 07:58:12;;;;;;;;;;;;;;;16.05;42.57;100791.25;4890973;29;1240;-49
2024/02/06 08:00:38;;;;;;;;;;;;;;;16.11;42.54;100797.00;4903364;29;1213;-50
2024/02/06 08:03:03;;;;;;;;;;;;;;;17.78;38.91;100797.31;4903220;29;1331;-52
2024/02/06 08:05:29;;;;;;;;;;;;;;;16.34;41.77;100805.13;4902931;29;1374;-51
2024/02/06 08:07:55;;;;;;;;;;;;;;;15.84;43.10;100791.75;4895650;29;1303;-50
2024/02/06 08:10:20;;;;;;;;;;;;;;;17.85;39.18;100800.34;4902925;29;1173;-49
2024/02/06 08:12:46;;;;;;;;;;;;;;;16.42;41.98;100814.31;4902836;29;1914;-50
2024/02/06 08:15:12;;;;;;;;;;;;;;;16.01;42.54;100806.53;4902429;29;1174;-48
2024/02/06 08:17:42;;;;;;;;;;;;;;;17.66;39.68;100801.78;4903146;29;1362;-51
2024/02/06 08:20:09;;;;;;;;;;;;;;;16.71;41.10;100812.25;4891175;29;1384;-49
2024/02/06 08:22:37;;;;;;;;;;;;;;;16.10;42.28;100813.84;4902912;29;1434;-51
2024/02/06 08:25:06;;;;;;;;;;;;;;;17.04;41.00;100807.22;4902408;29;1387;-49
2024/02/06 08:27:32;;;;;;;;;;;;;;;17.16;40.28;100812.63;4902834;29;1336;-50
2024/02/06 08:29:57;;;;;;;;;;;;;;;16.19;42.42;100812.38;4902772;29;1387;-52
2024/02/06 08:32:23;;;;;;;;;;;;;;;15.86;42.74;100814.59;4887546;29;1906;-51
2024/02/06 08:34:48;;;;;;;;;;;;;;;16.78;41.29;100810.00;4899171;29;1174;-46
2024/02/06 08:37:14;;;;;;;;;;;;;;;16.91;40.60;100809.09;4901210;29;1091;-51
2024/02/06 08:39:40;;;;;;;;;;;;;;;16.16;42.42;100796.66;4887491;29;1531;-49
2024/02/06 08:42:05;;;;;;;;;;;;;;;16.85;41.43;100797.94;4892831;29;1289;-51
2024/02/06 08:44:31;;;;;;;;;;;;;;;17.01;40.25;100787.03;4899328;29;1428;-50
2024/02/06 08:46:56;;;;;;;;;;;;;;;16.27;41.88;100791.44;4892240;29;1074;-51
2024/02/06 08:49:22;;;;;;;;;;;;;;;16.24;42.30;100789.00;4902234;29;1620;-47
2024/02/06 08:51:50;;;;;;;;;;;;;;;16.96;40.31;100785.69;4891705;29;1911;-49
2024/02/06 08:54:17;;;;;;;;;;;;;;;16.08;42.41;100767.16;4895320;29;1137;-50
2024/02/06 08:56:42;;;;;;;;;;;;;;;15.97;42.41;100767.88;4896173;29;881;-48
2024/02/06 08:59:09;;;;;;;;;;;;;;;15.81;42.36;100773.41;4901312;29;1045;-50
2024/02/06 09:01:35;;;;;;;;;;;;;;;17.46;39.97;100769.56;4889929;29;1042;-49
2024/02/06 09:04:04;;;;;;;;;;;;;;;16.69;41.06;100755.72;4902362;29;1097;-51
2024/02/06 09:06:30;;;;;;;;;;;;;;;16.04;42.32;100766.53;4889654;29;943;-49
2024/02/06 09:08:58;;;;;;;;;;;;;;;15.79;42.98;100765.56;4896966;29;891;-44
2024/02/06 09:11:27;;;;;;;;;;;;;;;15.65;42.91;100764.69;4901503;29;1973;-46
2024/02/06 09:13:53;;;;;;;;;;;;;;;17.97;38.78;100761.25;4901595;29;1078;-51
2024/02/06 09:16:22;;;;;;;;;;;;;;;16.42;41.58;100748.81;4894848;29;1122;-48
2024/02/06 09:18:51;;;;;;;;;;;;;;;15.91;42.70;100738.16;4885000;29;1136;-48
2024/02/06 09:21:17;;;;;;;;;;;;;;;17.68;39.00;100733.34;4891124;29;1126;-50
2024/02/06 09:23:45;;;;;;;;;;;;;;;16.37;41.55;100743.84;4901204;29;1128;-50
2024/02/06 09:26:11;;;;;;;;;;;;;;;15.94;42.21;100738.91;4901363;29;1136;-50
2024/02/06 09:28:38;;;;;;;;;;;;;;;16.22;42.21;100736.97;4901100;29;1051;-48
2024/02/06 09:31:04;;;;;;;;;;;;;;;17.87;38.55;100731.88;4900865;29;1902;-49
2024/02/06 09:33:29;;;;;;;;;;;;;;;16.47;41.68;100724.56;4900574;29;1105;-51
2024/02/06 09:35:55;;;;;;;;;;;;;;;16.00;42.40;100712.81;4895718;29;1030;-46
2024/02/06 09:38:20;;;;;;;;;;;;;;;17.34;40.09;100707.53;4888814;29;1433;-50
2024/02/06 09:40:47;;;;;;;;;;;;;;;16.76;40.63;100706.50;4901423;29;1152;-50
2024/02/06 09:43:13;;;;;;;;;;;;;;;16.14;42.23;100703.88;4884492;29;1039;-51
2024/02/06 09:45:39;;;;;;;;;;;;;;;15.82;42.78;100704.31;4900745;29;1220;-49
2024/02/06 09:48:06;;;;;;;;;;;;;;;17.30;40.14;100694.59;4882675;29;1070;-51
2024/02/06 09:50:31;;;;;;;;;;;;;;;16.73;40.75;100692.59;4895194;29;1068;-48
2024/02/06 09:52:58;;;;;;;;;;;;;;;15.98;42.38;100684.69;4901173;29;1907;-50
2024/02/06 09:55:24;;;;;;;;;;;;;;;16.58;41.80;100679.47;4900916;29;1421;-50
2024/02/06 09:57:49;;;;;;;;;;;;;;;17.10;39.81;100678.38;4888862;29;1291;-50
2024/02/06 10:00:15;;;;;;;;;;;;;;;16.26;41.85;100669.44;4907502;29;1078;-50
2024/02/06 10:02:41;;;;;;;;;;;;;;;15.93;42.51;100678.84;4896825;29;1267;-49
2024/02/06 10:05:08;;;;;;;;;;;;;;;16.04;42.44;100668.34;4901312;29;1327;-51
2024/02/06 10:07:33;;;;;;;;;;;;;;;17.18;39.90;100670.66;4899064;29;1324;-55
2024/02/06 10:09:59;;;;;;;;;;;;;;;16.07;42.24;100669.91;4900323;29;1355;-57
2024/02/06 10:12:25;;;;;;;;;;;;;;;15.89;42.61;100671.13;4900194;29;1919;-55
2024/02/06 10:14:50;;;;;;;;;;;;;;;16.50;41.89;100658.81;4912323;29;1070;-57
2024/02/06 10:17:18;;;;;;;;;;;;;;;17.27;39.47;100658.44;4894909;29;1106;-57
2024/02/06 10:19:43;;;;;;;;;;;;;;;16.20;41.54;100652.13;4891165;29;1190;-55
2024/02/06 10:22:12;;;;;;;;;;;;;;;17.63;39.46;100667.16;4888341;29;1136;-56
2024/02/06 10:24:39;;;;;;;;;;;;;;;16.69;40.78;100664.56;4891962;29;1102;-56
2024/02/06 10:27:04;;;;;;;;;;;;;;;16.14;42.04;100660.56;4898039;29;1471;-56
2024/02/06 10:29:31;;;;;;;;;;;;;;;15.99;42.21;100647.44;4890918;29;1156;-56
2024/02/06 10:32:00;;;;;;;;;;;;;;;17.91;38.48;100647.31;4897564;29;1982;-55
2024/02/06 10:34:27;;;;;;;;;;;;;;;16.44;41.48;100645.16;4915161;29;1162;-57
2024/02/06 10:36:59;;;;;;;;;;;;;;;16.10;42.20;100648.50;4900217;29;1050;-56
2024/02/06 10:39:28;;;;;;;;;;;;;;;16.09;42.26;100637.00;4900578;29;1034;-57
2024/02/06 10:41:58;;;;;;;;;;;;;;;17.19;39.89;100634.28;4888097;29;1109;-56
2024/02/06 10:44:24;;;;;;;;;;;;;;;16.18;42.01;100632.84;4900031;29;1161;-56
2024/02/06 10:47:02;;;;;;;;;;;;;;;17.99;38.58;100629.75;4900317;29;1284;-55
2024/02/06 10:49:28;;;;;;;;;;;;;;;16.86;40.62;100637.59;4896979;29;1297;-54
2024/02/06 10:52:03;;;;;;;;;;;;;;;16.24;41.64;100627.09;4891178;29;1972;-54
2024/02/06 10:54:28;;;;;;;;;;;;;;;16.05;42.24;100622.25;4900319;29;1066;-54
2024/02/06 10:56:55;;;;;;;;;;;;;;;15.83;42.28;100622.97;4899132;29;1082;-55
2024/02/06 10:59:21;;;;;;;;;;;;;;;15.84;42.31;100619.34;4912766;29;1614;-50
2024/02/06 11:01:47;;;;;;;;;;;;;;;17.98;38.41;100617.41;4892773;29;1058;-53
2024/02/06 11:04:13;;;;;;;;;;;;;;;16.41;41.39;100619.69;4909926;29;1119;-47
2024/02/06 11:07:06;;;;;;;;;;;;;;;16.16;41.90;100621.50;4898969;29;1140;-48
2024/02/06 11:09:33;;;;;;;;;;;;;;;17.67;39.21;100625.22;4894732;29;1330;-55
2024/02/06 11:11:59;;;;;;;;;;;;;;;16.62;40.86;100619.88;4894914;29;1987;-50
2024/02/06 11:14:25;;;;;;;;;;;;;;;16.09;42.07;100617.59;4892782;29;1123;-48
2024/02/06 11:16:51;;;;;;;;;;;;;;;15.94;42.42;100615.06;4895286;29;1113;-52
2024/02/06 11:19:20;;;;;;;;;;;;;;;15.77;42.48;100613.63;4904337;29;1133;-53
2024/02/06 11:21:48;;;;;;;;;;;;;;;17.15;40.18;100615.06;4891530;29;1083;-52
2024/02/06 11:24:14;;;;;;;;;;;;;;;16.47;41.33;100600.63;4918704;29;1130;-51
2024/02/06 11:26:39;;;;;;;;;;;;;;;15.87;42.69;100598.75;4903077;29;1097;-54
2024/02/06 11:29:08;;;;;;;;;;;;;;;16.08;42.60;100595.50;4918276;29;1149;-52
2024/02/06 11:31:37;;;;;;;;;;;;;;;18.05;38.17;100588.47;4897369;29;1910;-53
2024/02/06 11:34:13;;;;;;;;;;;;;;;16.47;41.26;100605.94;4908857;29;956;-48
2024/02/06 11:36:39;;;;;;;;;;;;;;;15.95;42.28;100608.78;4893412;29;1225;-50
2024/02/06 11:39:08;;;;;;;;;;;;;;;17.11;40.30;100602.97;4903405;29;1006;-50
2024/02/06 11:41:33;;;;;;;;;;;;;;;17.34;39.43;100598.53;4894672;29;1126;-56
2024/02/06 11:44:09;;;;;;;;;;;;;;;16.38;41.63;100598.69;4886320;29;1113;-58
2024/02/06 11:46:40;;;;;;;;;;;;;;;16.03;42.25;100589.72;4894735;29;1140;-50
2024/02/06 11:49:06;;;;;;;;;;;;;;;15.97;42.07;100598.91;4902646;29;1232;-47
2024/02/06 11:51:32;;;;;;;;;;;;;;;17.55;39.11;100595.13;4886084;29;1914;-50
2024/02/06 11:53:57;;;;;;;;;;;;;;;16.37;41.44;100589.84;4910266;29;1135;-53
2024/02/06 11:56:23;;;;;;;;;;;;;;;15.95;42.22;100579.59;4899743;29;1071;-54
2024/02/06 11:58:50;;;;;;;;;;;;;;;15.81;42.30;100579.78;4894557;29;1158;-55
2024/02/06 12:01:25;;;;;;;;;;;;;;;17.81;38.84;100580.69;4902970;29;1101;-57
2024/02/06 12:03:54;;;;;;;;;;;;;;;16.50;41.16;100570.31;4902773;29;1038;-48
2024/02/06 12:06:21;;;;;;;;;;;;;;;16.03;42.31;100571.13;4890097;29;1109;-55
2024/02/06 12:08:46;;;;;;;;;;;;;;;17.82;38.68;100561.09;4912150;29;1094;-52
2024/02/06 12:11:12;;;;;;;;;;;;;;;16.58;41.29;100562.63;4901606;29;1919;-56
2024/02/06 12:13:37;;;;;;;;;;;;;;;16.11;41.93;100563.47;4902932;29;1086;-53
2024/02/06 12:16:04;;;;;;;;;;;;;;;17.62;39.16;100569.72;4902970;29;1134;-53
2024/02/06 12:18:29;;;;;;;;;;;;;;;16.43;41.54;100558.50;4902812;29;1122;-52
2024/02/06 12:20:55;;;;;;;;;;;;;;;16.12;42.27;100559.84;4902437;29;1106;-50
2024/02/06 12:23:22;;;;;;;;;;;;;;;15.96;42.53;100552.13;4902882;29;1069;-51
2024/02/06 12:25:47;;;;;;;;;;;;;;;15.82;42.51;100558.44;4897003;29;1073;-55
2024/02/06 12:28:14;;;;;;;;;;;;;;;16.01;42.53;100544.72;4883928;29;1118;-54
2024/02/06 12:30:40;;;;;;;;;;;;;;;17.28;39.51;100537.88;4901505;29;1098;-55
2024/02/06 12:33:06;;;;;;;;;;;;;;;16.17;42.10;100532.94;4895869;29;1915;-55
2024/02/06 12:35:32;;;;;;;;;;;;;;;15.91;42.43;100533.06;4896676;29;1058;-55
2024/02/06 12:37:58;;;;;;;;;;;;;;;15.74;42.55;100513.06;4895668;29;1182;-55
2024/02/06 12:40:27;;;;;;;;;;;;;;;17.40;39.90;100528.03;4911509;29;1153;-56
2024/02/06 12:42:53;;;;;;;;;;;;;;;16.51;41.81;100513.63;4895787;29;1159;-53